sensor_id;sensor_type;location;lat;lon;timestamp;temperature;humidity
5394;DHT22;2720;52.396;10.064;2023-07-20T00:00:21;14.70;99.90
5394;DHT22;2720;52.396;10.064;2023-07-20T00:02:50;14.60;99.90
5394;DHT22;2720;52.396;10.064;2023-07-20T00:05:17;14.50;99.90
5394;DHT22;2720;52.396;10.064;2023-07-20T00:07:47;14.40;99.90
5394;DHT22;2720;52.396;10.064;2023-07-20T00:10:17;14.40;99.90
5394;DHT22;2720;52.396;10.064;2023-07-20T00:12:44;14.30;99.90
5394;DHT22;2720;52.396;10.064;2023-07-20T00:15:13;14.20;99.90
5394;DHT22;2720;52.396;10.064;2023-07-20T00:17:41;14.10;99.90
5394;DHT22;2720;52.396;10.064;2023-07-20T00:20:10;14.00;99.90
5394;DHT22;2720;52.396;10.064;2023-07-20T00:22:37;14.00;99.90
5394;DHT22;2720;52.396;10.064;2023-07-20T00:25:05;14.00;99.90
5394;DHT22;2720;52.396;10.064;2023-07-20T00:27:32;14.00;99.90
5394;DHT22;2720;52.396;10.064;2023-07-20T00:29:59;14.00;99.90
5394;DHT22;2720;52.396;10.064;2023-07-20T00:32:26;14.00;99.90
5394;DHT22;2720;52.396;10.064;2023-07-20T00:34:54;14.10;99.90
5394;DHT22;2720;52.396;10.064;2023-07-20T00:37:21;14.00;99.90
5394;DHT22;2720;52.396;10.064;2023-07-20T00:39:48;14.00;99.90
5394;DHT22;2720;52.396;10.064;2023-07-20T00:42:15;14.00;99.90
5394;DHT22;2720;52.396;10.064;2023-07-20T00:44:42;14.00;99.90
5394;DHT22;2720;52.396;10.064;2023-07-20T00:47:09;14.10;99.90
5394;DHT22;2720;52.396;10.064;2023-07-20T00:49:36;14.00;99.90
5394;DHT22;2720;52.396;10.064;2023-07-20T00:52:07;13.90;99.90
5394;DHT22;2720;52.396;10.064;2023-07-20T00:54:34;13.80;99.90
5394;DHT22;2720;52.396;10.064;2023-07-20T00:57:02;13.80;99.90
5394;DHT22;2720;52.396;10.064;2023-07-20T00:59:30;13.80;99.90
5394;DHT22;2720;52.396;10.064;2023-07-20T01:01:57;13.70;99.90
5394;DHT22;2720;52.396;10.064;2023-07-20T01:04:24;13.60;99.90
5394;DHT22;2720;52.396;10.064;2023-07-20T01:06:58;13.60;99.90
5394;DHT22;2720;52.396;10.064;2023-07-20T01:09:33;13.50;99.90
5394;DHT22;2720;52.396;10.064;2023-07-20T01:12:10;13.50;99.90
5394;DHT22;2720;52.396;10.064;2023-07-20T01:14:39;13.50;99.90
5394;DHT22;2720;52.396;10.064;2023-07-20T01:17:06;13.50;99.90
5394;DHT22;2720;52.396;10.064;2023-07-20T01:19:33;13.50;99.90
5394;DHT22;2720;52.396;10.064;2023-07-20T01:22:07;13.40;99.90
5394;DHT22;2720;52.396;10.064;2023-07-20T01:25:03;13.40;99.90
5394;DHT22;2720;52.396;10.064;2023-07-20T01:27:49;13.40;99.90
5394;DHT22;2720;52.396;10.064;2023-07-20T01:30:35;13.30;99.90
5394;DHT22;2720;52.396;10.064;2023-07-20T01:33:09;13.40;99.90
5394;DHT22;2720;52.396;10.064;2023-07-20T01:35:38;13.40;99.90
5394;DHT22;2720;52.396;10.064;2023-07-20T01:38:11;13.40;99.90
5394;DHT22;2720;52.396;10.064;2023-07-20T01:40:39;13.40;99.90
5394;DHT22;2720;52.396;10.064;2023-07-20T01:43:07;13.30;99.90
5394;DHT22;2720;52.396;10.064;2023-07-20T01:45:34;13.30;99.90
5394;DHT22;2720;52.396;10.064;2023-07-20T01:48:01;13.30;99.90
5394;DHT22;2720;52.396;10.064;2023-07-20T01:50:29;13.40;99.90
5394;DHT22;2720;52.396;10.064;2023-07-20T01:52:56;13.40;99.90
5394;DHT22;2720;52.396;10.064;2023-07-20T01:55:23;13.40;99.90
5394;DHT22;2720;52.396;10.064;2023-07-20T01:57:50;13.40;99.90
5394;DHT22;2720;52.396;10.064;2023-07-20T02:00:18;13.40;99.90
5394;DHT22;2720;52.396;10.064;2023-07-20T02:02:46;13.40;99.90
5394;DHT22;2720;52.396;10.064;2023-07-20T02:05:14;13.30;99.90
5394;DHT22;2720;52.396;10.064;2023-07-20T02:07:42;13.30;99.90
5394;DHT22;2720;52.396;10.064;2023-07-20T02:10:09;13.20;99.90
5394;DHT22;2720;52.396;10.064;2023-07-20T02:12:36;13.20;99.90
5394;DHT22;2720;52.396;10.064;2023-07-20T02:15:04;13.20;99.90
5394;DHT22;2720;52.396;10.064;2023-07-20T02:17:31;13.20;99.90
5394;DHT22;2720;52.396;10.064;2023-07-20T02:19:58;13.20;99.90
5394;DHT22;2720;52.396;10.064;2023-07-20T02:22:25;13.20;99.90
5394;DHT22;2720;52.396;10.064;2023-07-20T02:24:53;13.20;99.90
5394;DHT22;2720;52.396;10.064;2023-07-20T02:27:20;13.30;99.90
5394;DHT22;2720;52.396;10.064;2023-07-20T02:29:47;13.20;99.90
5394;DHT22;2720;52.396;10.064;2023-07-20T02:32:16;13.20;99.90
5394;DHT22;2720;52.396;10.064;2023-07-20T02:34:42;13.20;99.90
5394;DHT22;2720;52.396;10.064;2023-07-20T02:37:09;13.30;99.90
5394;DHT22;2720;52.396;10.064;2023-07-20T02:39:38;13.30;99.90
5394;DHT22;2720;52.396;10.064;2023-07-20T02:42:07;13.40;99.90
5394;DHT22;2720;52.396;10.064;2023-07-20T02:44:34;13.40;99.90
5394;DHT22;2720;52.396;10.064;2023-07-20T02:47:01;13.40;99.90
5394;DHT22;2720;52.396;10.064;2023-07-20T02:49:28;13.30;99.90
5394;DHT22;2720;52.396;10.064;2023-07-20T02:51:55;13.30;99.90
5394;DHT22;2720;52.396;10.064;2023-07-20T02:54:22;13.30;99.90
5394;DHT22;2720;52.396;10.064;2023-07-20T02:56:49;13.30;99.90
5394;DHT22;2720;52.396;10.064;2023-07-20T02:59:18;13.30;99.90
5394;DHT22;2720;52.396;10.064;2023-07-20T03:01:45;13.30;99.90
5394;DHT22;2720;52.396;10.064;2023-07-20T03:04:12;13.30;99.90
5394;DHT22;2720;52.396;10.064;2023-07-20T03:06:39;13.30;99.90
5394;DHT22;2720;52.396;10.064;2023-07-20T03:09:06;13.30;99.90
5394;DHT22;2720;52.396;10.064;2023-07-20T03:11:33;13.30;99.90
5394;DHT22;2720;52.396;10.064;2023-07-20T03:14:00;13.30;99.90
5394;DHT22;2720;52.396;10.064;2023-07-20T03:16:28;13.20;99.90
5394;DHT22;2720;52.396;10.064;2023-07-20T03:18:58;13.20;99.90
5394;DHT22;2720;52.396;10.064;2023-07-20T03:21:25;13.20;99.90
5394;DHT22;2720;52.396;10.064;2023-07-20T03:23:52;13.10;99.90
5394;DHT22;2720;52.396;10.064;2023-07-20T03:26:19;13.20;99.90
5394;DHT22;2720;52.396;10.064;2023-07-20T03:28:46;13.20;99.90
5394;DHT22;2720;52.396;10.064;2023-07-20T03:31:13;13.30;99.90
5394;DHT22;2720;52.396;10.064;2023-07-20T03:33:42;13.30;99.90
5394;DHT22;2720;52.396;10.064;2023-07-20T03:36:09;13.40;99.90
5394;DHT22;2720;52.396;10.064;2023-07-20T03:38:36;13.50;99.90
5394;DHT22;2720;52.396;10.064;2023-07-20T03:41:03;13.60;99.90
5394;DHT22;2720;52.396;10.064;2023-07-20T03:43:30;13.70;99.90
5394;DHT22;2720;52.396;10.064;2023-07-20T03:45:57;13.70;99.90
5394;DHT22;2720;52.396;10.064;2023-07-20T03:48:24;13.70;99.90
5394;DHT22;2720;52.396;10.064;2023-07-20T03:50:54;13.80;99.90
5394;DHT22;2720;52.396;10.064;2023-07-20T03:53:21;13.80;99.90
5394;DHT22;2720;52.396;10.064;2023-07-20T03:55:49;13.90;99.90
5394;DHT22;2720;52.396;10.064;2023-07-20T03:58:17;13.90;99.90
5394;DHT22;2720;52.396;10.064;2023-07-20T04:00:45;14.00;99.90
5394;DHT22;2720;52.396;10.064;2023-07-20T04:03:12;14.00;99.90
5394;DHT22;2720;52.396;10.064;2023-07-20T04:05:39;14.00;99.90
5394;DHT22;2720;52.396;10.064;2023-07-20T04:08:08;14.10;99.90
5394;DHT22;2720;52.396;10.064;2023-07-20T04:10:36;14.20;99.90
5394;DHT22;2720;52.396;10.064;2023-07-20T04:13:03;14.20;99.90
5394;DHT22;2720;52.396;10.064;2023-07-20T04:15:30;14.30;99.90
5394;DHT22;2720;52.396;10.064;2023-07-20T04:17:58;14.30;99.90
5394;DHT22;2720;52.396;10.064;2023-07-20T04:20:24;14.40;99.90
5394;DHT22;2720;52.396;10.064;2023-07-20T04:22:51;14.50;99.90
5394;DHT22;2720;52.396;10.064;2023-07-20T04:25:20;14.60;99.90
5394;DHT22;2720;52.396;10.064;2023-07-20T04:27:47;14.60;99.90
5394;DHT22;2720;52.396;10.064;2023-07-20T04:30:17;14.70;99.90
5394;DHT22;2720;52.396;10.064;2023-07-20T04:32:45;14.70;99.90
5394;DHT22;2720;52.396;10.064;2023-07-20T04:35:17;14.80;99.90
5394;DHT22;2720;52.396;10.064;2023-07-20T04:37:44;14.80;99.90
5394;DHT22;2720;52.396;10.064;2023-07-20T04:40:12;14.80;99.90
5394;DHT22;2720;52.396;10.064;2023-07-20T04:42:41;14.80;99.90
5394;DHT22;2720;52.396;10.064;2023-07-20T04:45:08;14.90;99.90
5394;DHT22;2720;52.396;10.064;2023-07-20T04:47:35;14.90;99.90
5394;DHT22;2720;52.396;10.064;2023-07-20T04:50:03;14.90;99.90
5394;DHT22;2720;52.396;10.064;2023-07-20T04:52:30;14.90;99.90
5394;DHT22;2720;52.396;10.064;2023-07-20T04:54:58;14.90;99.90
5394;DHT22;2720;52.396;10.064;2023-07-20T04:57:25;14.90;99.90
5394;DHT22;2720;52.396;10.064;2023-07-20T04:59:53;15.00;99.90
5394;DHT22;2720;52.396;10.064;2023-07-20T05:02:20;14.90;99.90
5394;DHT22;2720;52.396;10.064;2023-07-20T05:04:47;14.80;99.90
5394;DHT22;2720;52.396;10.064;2023-07-20T05:07:14;14.80;99.90
5394;DHT22;2720;52.396;10.064;2023-07-20T05:09:41;14.60;99.90
5394;DHT22;2720;52.396;10.064;2023-07-20T05:12:08;14.50;99.90
5394;DHT22;2720;52.396;10.064;2023-07-20T05:14:37;14.40;99.90
5394;DHT22;2720;52.396;10.064;2023-07-20T05:17:06;14.30;99.90
5394;DHT22;2720;52.396;10.064;2023-07-20T05:19:33;14.30;99.90
5394;DHT22;2720;52.396;10.064;2023-07-20T05:22:00;14.20;99.90
5394;DHT22;2720;52.396;10.064;2023-07-20T05:24:27;14.20;99.90
5394;DHT22;2720;52.396;10.064;2023-07-20T05:26:54;14.20;99.90
5394;DHT22;2720;52.396;10.064;2023-07-20T05:29:20;14.10;99.90
5394;DHT22;2720;52.396;10.064;2023-07-20T05:31:47;14.10;99.90
5394;DHT22;2720;52.396;10.064;2023-07-20T05:34:16;14.00;99.90
5394;DHT22;2720;52.396;10.064;2023-07-20T05:37:10;14.00;99.90
5394;DHT22;2720;52.396;10.064;2023-07-20T05:39:37;14.00;99.90
5394;DHT22;2720;52.396;10.064;2023-07-20T05:42:05;13.90;99.90
5394;DHT22;2720;52.396;10.064;2023-07-20T05:44:32;13.90;99.90
5394;DHT22;2720;52.396;10.064;2023-07-20T05:46:58;13.90;99.90
5394;DHT22;2720;52.396;10.064;2023-07-20T05:49:26;13.80;99.90
5394;DHT22;2720;52.396;10.064;2023-07-20T05:51:54;13.80;99.90
5394;DHT22;2720;52.396;10.064;2023-07-20T05:54:21;13.80;99.90
5394;DHT22;2720;52.396;10.064;2023-07-20T05:56:48;13.80;99.90
5394;DHT22;2720;52.396;10.064;2023-07-20T05:59:15;13.90;99.90
5394;DHT22;2720;52.396;10.064;2023-07-20T06:01:42;13.90;99.90
5394;DHT22;2720;52.396;10.064;2023-07-20T06:04:09;13.90;99.90
5394;DHT22;2720;52.396;10.064;2023-07-20T06:06:38;13.90;99.90
5394;DHT22;2720;52.396;10.064;2023-07-20T06:09:05;14.00;99.90
5394;DHT22;2720;52.396;10.064;2023-07-20T06:11:35;14.00;99.90
5394;DHT22;2720;52.396;10.064;2023-07-20T06:14:02;14.00;99.90
5394;DHT22;2720;52.396;10.064;2023-07-20T06:16:29;13.90;99.90
5394;DHT22;2720;52.396;10.064;2023-07-20T06:18:56;14.00;99.90
5394;DHT22;2720;52.396;10.064;2023-07-20T06:21:23;14.00;99.90
5394;DHT22;2720;52.396;10.064;2023-07-20T06:23:51;14.10;99.90
5394;DHT22;2720;52.396;10.064;2023-07-20T06:26:18;14.20;99.90
5394;DHT22;2720;52.396;10.064;2023-07-20T06:28:46;14.20;99.90
5394;DHT22;2720;52.396;10.064;2023-07-20T06:31:13;14.30;99.90
5394;DHT22;2720;52.396;10.064;2023-07-20T06:33:40;14.40;99.90
5394;DHT22;2720;52.396;10.064;2023-07-20T06:36:07;14.50;99.90
5394;DHT22;2720;52.396;10.064;2023-07-20T06:38:34;14.60;99.90
5394;DHT22;2720;52.396;10.064;2023-07-20T06:41:03;14.80;99.90
5394;DHT22;2720;52.396;10.064;2023-07-20T06:43:30;14.90;99.90
5394;DHT22;2720;52.396;10.064;2023-07-20T06:45:56;15.10;99.90
5394;DHT22;2720;52.396;10.064;2023-07-20T06:48:23;15.20;99.90
5394;DHT22;2720;52.396;10.064;2023-07-20T06:50:50;15.30;99.90
5394;DHT22;2720;52.396;10.064;2023-07-20T06:53:17;15.40;99.90
5394;DHT22;2720;52.396;10.064;2023-07-20T06:55:44;15.50;99.90
5394;DHT22;2720;52.396;10.064;2023-07-20T06:58:13;15.50;99.90
5394;DHT22;2720;52.396;10.064;2023-07-20T07:00:39;15.80;99.90
5394;DHT22;2720;52.396;10.064;2023-07-20T07:03:06;15.90;99.90
5394;DHT22;2720;52.396;10.064;2023-07-20T07:05:36;15.90;99.90
5394;DHT22;2720;52.396;10.064;2023-07-20T07:08:03;15.90;99.90
5394;DHT22;2720;52.396;10.064;2023-07-20T07:10:31;15.80;99.90
5394;DHT22;2720;52.396;10.064;2023-07-20T07:12:58;15.80;99.90
5394;DHT22;2720;52.396;10.064;2023-07-20T07:15:27;15.80;99.90
5394;DHT22;2720;52.396;10.064;2023-07-20T07:17:54;15.80;99.90
5394;DHT22;2720;52.396;10.064;2023-07-20T07:20:21;15.80;99.90
5394;DHT22;2720;52.396;10.064;2023-07-20T07:22:50;15.70;99.90
5394;DHT22;2720;52.396;10.064;2023-07-20T07:25:18;15.70;99.90
5394;DHT22;2720;52.396;10.064;2023-07-20T07:27:45;15.60;99.90
5394;DHT22;2720;52.396;10.064;2023-07-20T07:30:12;15.70;99.90
5394;DHT22;2720;52.396;10.064;2023-07-20T07:32:41;15.80;99.90
5394;DHT22;2720;52.396;10.064;2023-07-20T07:35:08;15.90;99.90
5394;DHT22;2720;52.396;10.064;2023-07-20T07:37:35;16.10;99.90
5394;DHT22;2720;52.396;10.064;2023-07-20T07:40:03;16.10;99.90
5394;DHT22;2720;52.396;10.064;2023-07-20T07:42:31;16.20;99.90
5394;DHT22;2720;52.396;10.064;2023-07-20T07:44:58;16.20;99.90
5394;DHT22;2720;52.396;10.064;2023-07-20T07:47:25;16.30;99.90
5394;DHT22;2720;52.396;10.064;2023-07-20T07:49:53;16.40;99.90
5394;DHT22;2720;52.396;10.064;2023-07-20T07:52:20;16.40;99.90
5394;DHT22;2720;52.396;10.064;2023-07-20T07:54:47;16.70;99.90
5394;DHT22;2720;52.396;10.064;2023-07-20T07:57:14;16.90;99.90
5394;DHT22;2720;52.396;10.064;2023-07-20T07:59:41;17.30;99.90
5394;DHT22;2720;52.396;10.064;2023-07-20T08:02:08;17.70;99.90
5394;DHT22;2720;52.396;10.064;2023-07-20T08:04:35;17.90;99.90
5394;DHT22;2720;52.396;10.064;2023-07-20T08:07:04;17.90;99.90
5394;DHT22;2720;52.396;10.064;2023-07-20T08:09:31;17.80;99.90
5394;DHT22;2720;52.396;10.064;2023-07-20T08:11:58;17.40;99.90
5394;DHT22;2720;52.396;10.064;2023-07-20T08:14:25;17.10;99.90
5394;DHT22;2720;52.396;10.064;2023-07-20T08:16:52;16.70;99.90
5394;DHT22;2720;52.396;10.064;2023-07-20T08:19:20;17.80;99.90
5394;DHT22;2720;52.396;10.064;2023-07-20T08:21:47;16.60;99.90
5394;DHT22;2720;52.396;10.064;2023-07-20T08:24:15;16.90;99.90
5394;DHT22;2720;52.396;10.064;2023-07-20T08:26:42;17.30;99.90
5394;DHT22;2720;52.396;10.064;2023-07-20T08:29:09;17.50;99.90
5394;DHT22;2720;52.396;10.064;2023-07-20T08:31:36;17.60;99.90
5394;DHT22;2720;52.396;10.064;2023-07-20T08:34:03;17.50;99.90
5394;DHT22;2720;52.396;10.064;2023-07-20T08:36:29;17.30;99.90
5394;DHT22;2720;52.396;10.064;2023-07-20T08:38:58;15.40;99.90
5394;DHT22;2720;52.396;10.064;2023-07-20T08:41:26;17.50;99.90
5394;DHT22;2720;52.396;10.064;2023-07-20T08:43:54;17.60;99.90
5394;DHT22;2720;52.396;10.064;2023-07-20T08:46:23;17.60;99.90
5394;DHT22;2720;52.396;10.064;2023-07-20T08:48:52;17.70;99.90
5394;DHT22;2720;52.396;10.064;2023-07-20T08:51:20;17.70;99.90
5394;DHT22;2720;52.396;10.064;2023-07-20T08:53:48;17.70;99.90
5394;DHT22;2720;52.396;10.064;2023-07-20T08:56:18;17.70;99.90
5394;DHT22;2720;52.396;10.064;2023-07-20T08:58:47;17.70;99.90
5394;DHT22;2720;52.396;10.064;2023-07-20T09:01:15;15.40;99.90
5394;DHT22;2720;52.396;10.064;2023-07-20T09:03:45;17.70;99.90
5394;DHT22;2720;52.396;10.064;2023-07-20T09:06:12;17.70;99.90
5394;DHT22;2720;52.396;10.064;2023-07-20T09:08:39;17.70;99.90
5394;DHT22;2720;52.396;10.064;2023-07-20T09:11:07;17.80;99.90
5394;DHT22;2720;52.396;10.064;2023-07-20T09:13:34;17.90;99.90
5394;DHT22;2720;52.396;10.064;2023-07-20T09:16:03;18.20;99.90
5394;DHT22;2720;52.396;10.064;2023-07-20T09:18:31;18.30;99.90
5394;DHT22;2720;52.396;10.064;2023-07-20T09:21:01;18.50;99.90
5394;DHT22;2720;52.396;10.064;2023-07-20T09:23:32;18.90;99.90
5394;DHT22;2720;52.396;10.064;2023-07-20T09:25:59;19.10;99.90
5394;DHT22;2720;52.396;10.064;2023-07-20T09:28:27;19.50;99.90
5394;DHT22;2720;52.396;10.064;2023-07-20T09:30:54;19.50;99.90
5394;DHT22;2720;52.396;10.064;2023-07-20T09:33:24;19.50;99.90
5394;DHT22;2720;52.396;10.064;2023-07-20T09:35:51;19.70;99.90
5394;DHT22;2720;52.396;10.064;2023-07-20T09:38:19;19.50;99.90
5394;DHT22;2720;52.396;10.064;2023-07-20T09:40:46;19.20;99.90
5394;DHT22;2720;52.396;10.064;2023-07-20T09:43:15;18.90;99.90
5394;DHT22;2720;52.396;10.064;2023-07-20T09:45:43;18.70;99.90
5394;DHT22;2720;52.396;10.064;2023-07-20T09:48:11;18.60;99.90
5394;DHT22;2720;52.396;10.064;2023-07-20T09:50:43;18.60;99.90
5394;DHT22;2720;52.396;10.064;2023-07-20T09:53:15;18.90;99.90
5394;DHT22;2720;52.396;10.064;2023-07-20T09:55:44;19.20;99.90
5394;DHT22;2720;52.396;10.064;2023-07-20T09:58:12;19.70;99.90
5394;DHT22;2720;52.396;10.064;2023-07-20T10:00:40;19.90;99.90
5394;DHT22;2720;52.396;10.064;2023-07-20T10:03:10;20.10;99.90
5394;DHT22;2720;52.396;10.064;2023-07-20T10:05:43;20.30;99.90
5394;DHT22;2720;52.396;10.064;2023-07-20T10:08:11;20.40;99.90
5394;DHT22;2720;52.396;10.064;2023-07-20T10:10:41;20.40;99.90
5394;DHT22;2720;52.396;10.064;2023-07-20T10:13:13;20.40;99.90
5394;DHT22;2720;52.396;10.064;2023-07-20T10:15:46;20.50;99.90
5394;DHT22;2720;52.396;10.064;2023-07-20T10:18:18;20.70;99.90
5394;DHT22;2720;52.396;10.064;2023-07-20T10:20:51;20.90;99.90
5394;DHT22;2720;52.396;10.064;2023-07-20T10:23:21;21.20;99.90
5394;DHT22;2720;52.396;10.064;2023-07-20T10:25:49;21.60;99.90
5394;DHT22;2720;52.396;10.064;2023-07-20T10:28:16;21.70;99.90
5394;DHT22;2720;52.396;10.064;2023-07-20T10:30:44;21.80;99.90
5394;DHT22;2720;52.396;10.064;2023-07-20T10:33:12;21.90;99.90
5394;DHT22;2720;52.396;10.064;2023-07-20T10:35:53;21.80;99.90
5394;DHT22;2720;52.396;10.064;2023-07-20T10:38:38;21.60;99.90
5394;DHT22;2720;52.396;10.064;2023-07-20T10:41:15;21.50;99.90
5394;DHT22;2720;52.396;10.064;2023-07-20T10:43:43;21.40;99.90
5394;DHT22;2720;52.396;10.064;2023-07-20T10:46:11;21.40;99.90
5394;DHT22;2720;52.396;10.064;2023-07-20T10:48:59;21.80;99.90
5394;DHT22;2720;52.396;10.064;2023-07-20T10:51:28;22.10;99.90
5394;DHT22;2720;52.396;10.064;2023-07-20T10:53:56;22.00;99.90
5394;DHT22;2720;52.396;10.064;2023-07-20T10:56:27;22.00;99.90
5394;DHT22;2720;52.396;10.064;2023-07-20T10:58:59;22.00;99.90
5394;DHT22;2720;52.396;10.064;2023-07-20T11:01:28;22.10;99.90
5394;DHT22;2720;52.396;10.064;2023-07-20T11:03:58;22.20;99.90
5394;DHT22;2720;52.396;10.064;2023-07-20T11:06:32;22.60;99.90
5394;DHT22;2720;52.396;10.064;2023-07-20T11:09:06;22.40;99.90
5394;DHT22;2720;52.396;10.064;2023-07-20T11:11:34;22.00;99.90
5394;DHT22;2720;52.396;10.064;2023-07-20T11:14:03;21.30;99.90
5394;DHT22;2720;52.396;10.064;2023-07-20T11:16:48;21.00;99.90
5394;DHT22;2720;52.396;10.064;2023-07-20T11:19:17;20.70;99.90
5394;DHT22;2720;52.396;10.064;2023-07-20T11:21:46;20.50;99.90
5394;DHT22;2720;52.396;10.064;2023-07-20T11:24:16;20.20;99.90
5394;DHT22;2720;52.396;10.064;2023-07-20T11:26:44;20.10;99.90
5394;DHT22;2720;52.396;10.064;2023-07-20T11:29:11;20.20;99.90
5394;DHT22;2720;52.396;10.064;2023-07-20T11:31:40;20.70;99.90
5394;DHT22;2720;52.396;10.064;2023-07-20T11:34:09;21.50;99.90
5394;DHT22;2720;52.396;10.064;2023-07-20T11:36:36;22.20;99.90
5394;DHT22;2720;52.396;10.064;2023-07-20T11:39:06;22.10;99.90
5394;DHT22;2720;52.396;10.064;2023-07-20T11:41:34;21.80;99.90
5394;DHT22;2720;52.396;10.064;2023-07-20T11:44:02;21.60;99.90
5394;DHT22;2720;52.396;10.064;2023-07-20T11:46:29;22.10;99.90
5394;DHT22;2720;52.396;10.064;2023-07-20T11:48:57;22.50;99.90
5394;DHT22;2720;52.396;10.064;2023-07-20T11:51:26;22.50;99.90
5394;DHT22;2720;52.396;10.064;2023-07-20T11:53:53;22.50;99.90
5394;DHT22;2720;52.396;10.064;2023-07-20T11:56:22;22.10;99.90
5394;DHT22;2720;52.396;10.064;2023-07-20T11:58:49;21.60;99.90
5394;DHT22;2720;52.396;10.064;2023-07-20T12:01:17;21.10;99.90
5394;DHT22;2720;52.396;10.064;2023-07-20T12:03:48;20.70;99.90
5394;DHT22;2720;52.396;10.064;2023-07-20T12:06:16;20.50;99.90
5394;DHT22;2720;52.396;10.064;2023-07-20T12:08:43;20.60;99.90
5394;DHT22;2720;52.396;10.064;2023-07-20T12:11:10;20.70;99.90
5394;DHT22;2720;52.396;10.064;2023-07-20T12:13:41;21.60;99.90
5394;DHT22;2720;52.396;10.064;2023-07-20T12:16:12;23.00;99.90
5394;DHT22;2720;52.396;10.064;2023-07-20T12:18:40;24.30;99.90
5394;DHT22;2720;52.396;10.064;2023-07-20T12:21:07;25.60;99.50
5394;DHT22;2720;52.396;10.064;2023-07-20T12:23:36;26.50;98.10
5394;DHT22;2720;52.396;10.064;2023-07-20T12:26:06;26.80;97.40
5394;DHT22;2720;52.396;10.064;2023-07-20T12:28:35;26.20;96.90
5394;DHT22;2720;52.396;10.064;2023-07-20T12:45:51;22.80;99.30
5394;DHT22;2720;52.396;10.064;2023-07-20T12:48:20;23.50;99.60
5394;DHT22;2720;52.396;10.064;2023-07-20T12:50:47;24.60;99.90
5394;DHT22;2720;52.396;10.064;2023-07-20T12:53:14;25.20;96.80
5394;DHT22;2720;52.396;10.064;2023-07-20T12:55:41;25.00;96.50
5394;DHT22;2720;52.396;10.064;2023-07-20T12:58:08;24.30;97.10
5394;DHT22;2720;52.396;10.064;2023-07-20T13:00:35;23.60;98.60
5394;DHT22;2720;52.396;10.064;2023-07-20T13:03:03;23.50;99.90
5394;DHT22;2720;52.396;10.064;2023-07-20T13:05:34;24.10;99.00
5394;DHT22;2720;52.396;10.064;2023-07-20T13:10:29;25.20;97.10
5394;DHT22;2720;52.396;10.064;2023-07-20T13:12:56;25.60;95.60
5394;DHT22;2720;52.396;10.064;2023-07-20T13:15:29;25.30;94.60
5394;DHT22;2720;52.396;10.064;2023-07-20T13:17:57;24.80;95.10
5394;DHT22;2720;52.396;10.064;2023-07-20T13:20:25;24.50;95.10
5394;DHT22;2720;52.396;10.064;2023-07-20T13:22:54;23.80;94.50
5394;DHT22;2720;52.396;10.064;2023-07-20T13:25:21;22.80;96.00
5394;DHT22;2720;52.396;10.064;2023-07-20T13:27:48;22.40;96.50
5394;DHT22;2720;52.396;10.064;2023-07-20T13:30:15;22.60;96.50
5394;DHT22;2720;52.396;10.064;2023-07-20T13:32:43;23.40;96.40
5394;DHT22;2720;52.396;10.064;2023-07-20T13:35:10;24.50;96.90
5394;DHT22;2720;52.396;10.064;2023-07-20T13:37:37;25.60;94.70
5394;DHT22;2720;52.396;10.064;2023-07-20T13:40:07;25.80;93.00
5394;DHT22;2720;52.396;10.064;2023-07-20T13:42:39;25.30;93.60
5394;DHT22;2720;52.396;10.064;2023-07-20T13:45:07;24.80;94.40
5394;DHT22;2720;52.396;10.064;2023-07-20T13:47:34;24.30;94.80
5394;DHT22;2720;52.396;10.064;2023-07-20T13:50:02;23.80;94.40
5394;DHT22;2720;52.396;10.064;2023-07-20T13:52:29;23.10;97.00
5394;DHT22;2720;52.396;10.064;2023-07-20T13:54:56;22.40;98.10
5394;DHT22;2720;52.396;10.064;2023-07-20T13:57:24;22.00;98.30
5394;DHT22;2720;52.396;10.064;2023-07-20T13:59:51;21.70;98.80
5394;DHT22;2720;52.396;10.064;2023-07-20T14:02:18;21.30;99.00
5394;DHT22;2720;52.396;10.064;2023-07-20T14:04:45;21.10;99.70
5394;DHT22;2720;52.396;10.064;2023-07-20T14:07:13;21.30;99.90
5394;DHT22;2720;52.396;10.064;2023-07-20T14:09:40;22.30;99.40
5394;DHT22;2720;52.396;10.064;2023-07-20T14:12:08;23.20;97.70
5394;DHT22;2720;52.396;10.064;2023-07-20T14:14:39;24.40;97.20
5394;DHT22;2720;52.396;10.064;2023-07-20T14:17:06;25.20;95.90
5394;DHT22;2720;52.396;10.064;2023-07-20T14:19:33;25.30;95.50
5394;DHT22;2720;52.396;10.064;2023-07-20T14:22:00;25.70;95.20
5394;DHT22;2720;52.396;10.064;2023-07-20T14:24:27;25.90;94.90
5394;DHT22;2720;52.396;10.064;2023-07-20T14:26:54;25.30;95.30
5394;DHT22;2720;52.396;10.064;2023-07-20T14:29:21;25.10;95.40
5394;DHT22;2720;52.396;10.064;2023-07-20T14:31:48;24.80;95.50
5394;DHT22;2720;52.396;10.064;2023-07-20T14:34:16;24.20;95.80
5394;DHT22;2720;52.396;10.064;2023-07-20T14:36:44;23.80;96.10
5394;DHT22;2720;52.396;10.064;2023-07-20T14:39:11;23.60;96.70
5394;DHT22;2720;52.396;10.064;2023-07-20T14:41:38;23.60;96.20
5394;DHT22;2720;52.396;10.064;2023-07-20T14:44:05;23.90;96.60
5394;DHT22;2720;52.396;10.064;2023-07-20T14:46:32;24.60;95.70
5394;DHT22;2720;52.396;10.064;2023-07-20T14:49:00;24.70;95.60
5394;DHT22;2720;52.396;10.064;2023-07-20T14:51:28;25.50;97.30
5394;DHT22;2720;52.396;10.064;2023-07-20T14:53:58;26.50;94.80
5394;DHT22;2720;52.396;10.064;2023-07-20T14:56:26;26.80;93.40
5394;DHT22;2720;52.396;10.064;2023-07-20T14:58:53;26.70;93.40
5394;DHT22;2720;52.396;10.064;2023-07-20T15:01:20;26.20;93.40
5394;DHT22;2720;52.396;10.064;2023-07-20T15:03:47;26.10;94.70
5394;DHT22;2720;52.396;10.064;2023-07-20T15:06:17;25.90;93.70
5394;DHT22;2720;52.396;10.064;2023-07-20T15:08:44;25.40;93.70
5394;DHT22;2720;52.396;10.064;2023-07-20T15:11:11;24.50;94.70
5394;DHT22;2720;52.396;10.064;2023-07-20T15:13:38;23.80;95.30
5394;DHT22;2720;52.396;10.064;2023-07-20T15:16:07;23.20;95.80
5394;DHT22;2720;52.396;10.064;2023-07-20T15:18:35;23.50;96.50
5394;DHT22;2720;52.396;10.064;2023-07-20T15:21:02;24.10;95.40
5394;DHT22;2720;52.396;10.064;2023-07-20T15:23:31;24.70;95.10
5394;DHT22;2720;52.396;10.064;2023-07-20T15:25:57;25.10;94.90
5394;DHT22;2720;52.396;10.064;2023-07-20T15:28:24;25.50;94.10
5394;DHT22;2720;52.396;10.064;2023-07-20T15:30:59;25.90;94.00
5394;DHT22;2720;52.396;10.064;2023-07-20T15:33:26;26.10;93.20
5394;DHT22;2720;52.396;10.064;2023-07-20T15:35:53;25.90;94.00
5394;DHT22;2720;52.396;10.064;2023-07-20T15:38:20;25.80;93.50
5394;DHT22;2720;52.396;10.064;2023-07-20T15:40:48;25.00;93.40
5394;DHT22;2720;52.396;10.064;2023-07-20T15:43:15;24.60;94.10
5394;DHT22;2720;52.396;10.064;2023-07-20T15:45:47;23.90;95.00
5394;DHT22;2720;52.396;10.064;2023-07-20T15:48:15;23.50;95.60
5394;DHT22;2720;52.396;10.064;2023-07-20T15:50:42;23.30;95.50
5394;DHT22;2720;52.396;10.064;2023-07-20T15:53:09;23.20;95.20
5394;DHT22;2720;52.396;10.064;2023-07-20T15:55:36;23.00;95.30
5394;DHT22;2720;52.396;10.064;2023-07-20T15:58:05;22.90;95.60
5394;DHT22;2720;52.396;10.064;2023-07-20T16:00:32;22.70;95.50
5394;DHT22;2720;52.396;10.064;2023-07-20T16:02:59;22.60;95.60
5394;DHT22;2720;52.396;10.064;2023-07-20T16:05:26;22.40;95.40
5394;DHT22;2720;52.396;10.064;2023-07-20T16:07:53;22.10;95.30